KAKO/AKO METAR and TAF weather

Enter ICAO airport designator
Station Type Date Time Source
KAKO METAR 2018/12/12 22:53 UTC NOAA

KAKO 122253Z AUTO 08004KT 10SM CLR 06/M12 A2969 RMK AO2 SLP059 T00611117 $


Station Type Date Time Source
KAKO Decoded METAR 2018/12/12 22:53 UTC NOAA

COLORADO PLAINS REGIONAL, CO, United States (KAKO) 40-10N 103-13W 1421M
Dec 12, 2018 - 05:53 PM EST / 2018.12.12 2253 UTC
Wind: from the E (080 degrees) at 5 MPH (4 KT):0
Visibility: 10 mile(s):0
Sky conditions: clear
Temperature: 43.0 F (6.1 C)
Dew Point: 10.9 F (-11.7 C)
Relative Humidity: 26%
Pressure (altimeter): 29.69 in. Hg (1005 hPa)
ob: KAKO 122253Z AUTO 08004KT 10SM CLR 06/M12 A2969 RMK AO2 SLP059 T00611117
cycle: 23

Station Type Date Time Source
KAKO TAF UTC NOAA

Error!


Example: see airport list